createdAt,value
2019-04-05T00:00:17.238Z,28.73
2019-04-05T00:02:46.574Z,27.53
2019-04-05T00:05:16.057Z,28.13
2019-04-05T00:07:45.391Z,27.03
2019-04-05T00:10:15.027Z,28.30
2019-04-05T00:12:44.480Z,26.27
2019-04-05T00:15:16.174Z,28.03
2019-04-05T00:17:45.397Z,28.07
2019-04-05T00:20:15.622Z,28.97
2019-04-05T00:22:44.955Z,26.93
2019-04-05T00:25:15.461Z,27.10
2019-04-05T00:27:46.499Z,26.93
2019-04-05T00:30:15.998Z,26.03
2019-04-05T00:32:45.339Z,27.03
2019-04-05T00:35:14.839Z,27.13
2019-04-05T00:37:44.188Z,26.83
2019-04-05T00:40:14.471Z,26.00
2019-04-05T00:42:43.798Z,26.80
2019-04-05T00:45:13.326Z,27.27
2019-04-05T00:47:42.670Z,26.57
2019-04-05T00:50:13.338Z,27.13
2019-04-05T00:52:42.731Z,25.77
2019-04-05T00:55:12.320Z,28.63
2019-04-05T00:57:41.667Z,26.47
2019-04-05T01:00:12.859Z,25.07
2019-04-05T01:02:42.178Z,25.67
2019-04-05T01:05:11.515Z,25.70
2019-04-05T01:07:40.949Z,27.20
2019-04-05T01:10:10.738Z,26.63
2019-04-05T01:12:40.338Z,27.03
2019-04-05T01:15:11.450Z,25.53
2019-04-05T01:17:41.026Z,24.27
2019-04-05T01:20:10.801Z,25.27
2019-04-05T01:22:42.801Z,25.53
2019-04-05T01:25:12.171Z,25.63
2019-04-05T01:27:41.920Z,25.07
2019-04-05T01:30:13.874Z,24.70
2019-04-05T01:32:43.215Z,24.97
2019-04-05T01:35:12.630Z,25.50
2019-04-05T01:37:42.145Z,25.50
2019-04-05T01:40:12.212Z,25.37
2019-04-05T01:42:42.566Z,24.93
2019-04-05T01:45:12.065Z,25.23
2019-04-05T01:47:41.469Z,25.23
2019-04-05T01:50:11.538Z,24.40
2019-04-05T01:52:42.556Z,23.47
2019-04-05T01:55:12.074Z,25.10
2019-04-05T01:57:41.405Z,24.37
2019-04-05T02:00:12.650Z,24.87
2019-04-05T02:02:42.215Z,24.57
2019-04-05T02:05:23.964Z,25.70
2019-04-05T02:07:53.264Z,23.67
2019-04-05T02:10:22.775Z,24.20
2019-04-05T02:12:52.076Z,25.27
2019-04-05T02:15:27.737Z,24.87
2019-04-05T02:17:57.581Z,25.63
2019-04-05T02:20:28.096Z,24.07
2019-04-05T02:22:57.683Z,23.53
2019-04-05T02:25:28.606Z,22.73
2019-04-05T02:27:57.936Z,25.23
2019-04-05T02:30:27.428Z,24.20
2019-04-05T02:32:56.807Z,24.47
2019-04-05T02:35:26.184Z,23.00
2019-04-05T02:37:55.581Z,24.07
2019-04-05T02:40:26.769Z,24.23
2019-04-05T02:42:59.095Z,24.70
2019-04-05T02:45:31.485Z,23.70
2019-04-05T02:48:03.861Z,25.83
2019-04-05T02:50:36.363Z,24.37
2019-04-05T02:53:08.758Z,23.67
2019-04-05T02:55:39.676Z,25.23
2019-04-05T02:58:10.960Z,25.00
2019-04-05T03:00:40.649Z,24.77
2019-04-05T03:03:10.529Z,26.27
2019-04-05T03:05:40.324Z,25.07
2019-04-05T03:08:09.801Z,26.20
2019-04-05T03:11:10.808Z,26.77
2019-04-05T03:13:45.961Z,27.07
2019-04-05T03:16:19.405Z,25.63
2019-04-05T03:19:05.326Z,25.50
2019-04-05T03:21:37.926Z,24.27
2019-04-05T03:24:11.465Z,25.67
2019-04-05T03:26:43.864Z,24.97
2019-04-05T03:29:13.236Z,23.47
2019-04-05T03:31:42.579Z,25.50
2019-04-05T03:34:12.818Z,22.37
2019-04-05T03:36:42.436Z,23.13
2019-04-05T03:39:12.005Z,24.53
2019-04-05T03:41:41.502Z,24.83
2019-04-05T03:44:11.173Z,23.40
2019-04-05T03:46:55.472Z,22.70
2019-04-05T03:49:11.571Z,24.67
2019-04-05T03:51:40.888Z,24.13
2019-04-05T03:54:10.269Z,24.10
2019-04-05T03:56:39.598Z,23.10
2019-04-05T03:59:08.901Z,23.23
2019-04-05T04:01:38.223Z,24.27
2019-04-05T04:04:08.494Z,23.40
2019-04-05T04:06:37.835Z,21.83
2019-04-05T04:09:07.213Z,24.10
2019-04-05T04:11:36.532Z,23.20
2019-04-05T04:14:10.655Z,23.43
2019-04-05T04:16:40.040Z,22.70
2019-04-05T04:19:09.360Z,22.00
2019-04-05T04:21:41.753Z,24.23
2019-04-05T04:24:11.341Z,23.70
2019-04-05T04:26:41.622Z,23.13
2019-04-05T04:29:11.059Z,24.57
2019-04-05T04:31:40.391Z,22.53
2019-04-05T04:34:09.839Z,24.70
2019-04-05T04:36:39.539Z,23.57
2019-04-05T04:39:08.845Z,23.17
2019-04-05T04:41:38.303Z,24.30
2019-04-05T04:44:07.683Z,22.73
2019-04-05T04:46:37.335Z,23.67
2019-04-05T04:49:06.646Z,21.83
2019-04-05T04:51:36.317Z,23.00
2019-04-05T04:54:05.784Z,23.30
2019-04-05T04:56:35.468Z,23.90
2019-04-05T04:59:04.861Z,22.53
2019-04-05T05:01:34.254Z,22.87
2019-04-05T05:04:03.593Z,22.53
2019-04-05T05:06:33.059Z,23.70
2019-04-05T05:09:02.423Z,21.67
2019-04-05T05:11:31.839Z,21.80
2019-04-05T05:14:01.585Z,22.60
2019-04-05T05:16:31.177Z,22.30
2019-04-05T05:19:00.925Z,21.43
2019-04-05T05:21:30.503Z,22.07
2019-04-05T05:23:59.887Z,22.70
2019-04-05T05:26:29.480Z,22.07
2019-04-05T05:28:59.414Z,20.43
2019-04-05T05:31:28.995Z,21.70
2019-04-05T05:33:58.319Z,20.03
2019-04-05T05:36:27.637Z,21.80
2019-04-05T05:38:56.953Z,21.03
2019-04-05T05:41:26.255Z,19.20
2019-04-05T05:43:55.644Z,21.13
2019-04-05T05:46:24.961Z,19.80
2019-04-05T05:48:54.375Z,19.87
2019-04-05T05:51:23.816Z,21.40
2019-04-05T05:53:53.210Z,19.17
2019-04-05T05:56:22.513Z,21.77
2019-04-05T05:58:55.332Z,21.20
2019-04-05T06:01:22.840Z,21.43
2019-04-05T06:03:52.156Z,20.80
2019-04-05T06:06:21.465Z,20.63
2019-04-05T06:08:50.786Z,21.13
2019-04-05T06:11:20.105Z,21.77
2019-04-05T06:13:49.414Z,22.40
2019-04-05T06:16:18.750Z,21.77
2019-04-05T06:18:48.675Z,21.13
2019-04-05T06:21:18.064Z,21.90
2019-04-05T06:23:47.386Z,21.10
2019-04-05T06:26:16.693Z,20.77
2019-04-05T06:28:46.131Z,21.90
2019-04-05T06:31:15.596Z,22.20
2019-04-05T06:33:44.912Z,21.60
2019-04-05T06:36:14.227Z,20.23
2019-04-05T06:38:43.545Z,22.53
2019-04-05T06:41:12.919Z,22.47
2019-04-05T06:43:42.299Z,23.13
2019-04-05T06:46:11.604Z,22.90
2019-04-05T06:48:41.030Z,21.00
2019-04-05T06:51:10.403Z,21.83
2019-04-05T06:53:39.717Z,22.03
2019-04-05T06:56:09.029Z,21.43
2019-04-05T06:58:40.275Z,22.97
2019-04-05T07:01:09.583Z,22.97
2019-04-05T07:03:40.816Z,21.20
2019-04-05T07:06:10.131Z,21.97
2019-04-05T07:08:39.444Z,21.10
2019-04-05T07:11:08.753Z,22.83
2019-04-05T07:13:38.068Z,23.20
2019-04-05T07:16:07.550Z,23.50
2019-04-05T07:18:36.953Z,23.03
2019-04-05T07:21:06.251Z,21.57
2019-04-05T07:23:35.577Z,19.80
2019-04-05T07:26:04.892Z,20.30
2019-04-05T07:28:34.272Z,21.10
2019-04-05T07:31:03.610Z,20.80
2019-04-05T07:33:33.848Z,21.53
2019-04-05T07:36:03.679Z,21.00
2019-04-05T07:38:34.113Z,21.20
2019-04-05T07:41:03.588Z,20.30
2019-04-05T07:43:32.931Z,20.20
2019-04-05T07:46:02.312Z,19.93
2019-04-05T07:48:43.831Z,19.73
2019-04-05T07:51:02.853Z,18.97
2019-04-05T07:53:33.863Z,18.60
2019-04-05T07:56:03.303Z,18.13
2019-04-05T07:58:32.767Z,17.23
2019-04-05T08:01:05.088Z,17.00
2019-04-05T08:03:34.509Z,18.73
2019-04-05T08:06:04.029Z,18.20
2019-04-05T08:08:36.450Z,16.67
2019-04-05T08:11:06.024Z,19.43
2019-04-05T08:13:38.299Z,18.03
2019-04-05T08:16:08.655Z,17.00
2019-04-05T08:18:38.034Z,17.57
2019-04-05T08:21:07.382Z,17.67
2019-04-05T08:23:36.774Z,16.97
2019-04-05T08:26:06.343Z,15.93
2019-04-05T08:28:35.664Z,16.17
2019-04-05T08:31:05.080Z,17.40
2019-04-05T08:33:36.374Z,16.93
2019-04-05T08:36:07.027Z,16.70
2019-04-05T08:38:39.421Z,16.13
2019-04-05T08:41:07.429Z,17.10
2019-04-05T08:43:36.808Z,16.27
2019-04-05T08:46:06.193Z,22.70
2019-04-05T08:48:35.506Z,17.73
2019-04-05T08:51:06.745Z,16.60
2019-04-05T08:53:36.052Z,16.43
2019-04-05T08:56:05.486Z,16.27
2019-04-05T08:58:34.994Z,18.10
2019-04-05T09:01:04.382Z,18.13
2019-04-05T09:03:33.739Z,18.13
2019-04-05T09:06:03.117Z,19.40
2019-04-05T09:08:32.558Z,19.53
2019-04-05T09:11:02.250Z,18.90
2019-04-05T09:13:31.619Z,19.50
2019-04-05T09:16:01.099Z,18.50
2019-04-05T09:18:30.457Z,17.03
2019-04-05T09:20:59.810Z,19.10
2019-04-05T09:23:29.120Z,17.63
2019-04-05T09:25:58.436Z,18.87
2019-04-05T09:28:27.745Z,18.53
2019-04-05T09:30:57.064Z,18.43
2019-04-05T09:33:26.390Z,18.97
2019-04-05T09:35:55.713Z,18.57
2019-04-05T09:38:25.032Z,18.03
2019-04-05T09:40:54.363Z,19.07
2019-04-05T09:43:23.684Z,18.57
2019-04-05T09:45:52.996Z,19.57
2019-04-05T09:48:22.308Z,18.03
2019-04-05T09:50:51.643Z,18.30
2019-04-05T09:53:20.957Z,17.57
2019-04-05T09:55:50.266Z,17.87
2019-04-05T09:58:19.578Z,17.20
2019-04-05T10:00:48.894Z,17.00
2019-04-05T10:03:18.282Z,19.07
2019-04-05T10:05:47.595Z,18.37
2019-04-05T10:08:16.909Z,18.37
2019-04-05T10:10:46.224Z,17.93
2019-04-05T10:13:15.785Z,17.57
2019-04-05T10:15:45.117Z,18.47
2019-04-05T10:18:14.494Z,18.70
2019-04-05T10:20:45.722Z,18.03
2019-04-05T10:23:15.033Z,17.37
2019-04-05T10:25:44.348Z,17.47
2019-04-05T10:28:13.664Z,16.83
2019-04-05T10:30:42.978Z,17.53
2019-04-05T10:33:12.285Z,17.60
2019-04-05T10:35:41.609Z,18.33
2019-04-05T10:38:10.916Z,18.10
2019-04-05T10:40:40.235Z,18.13
2019-04-05T10:43:09.619Z,16.97
2019-04-05T10:45:38.945Z,18.60
2019-04-05T10:48:08.245Z,16.93
2019-04-05T10:50:37.564Z,16.30
2019-04-05T10:53:06.878Z,16.83
2019-04-05T10:55:36.200Z,17.70
2019-04-05T10:58:05.600Z,17.43
2019-04-05T11:00:35.112Z,17.17
2019-04-05T11:03:04.422Z,17.67
2019-04-05T11:05:36.812Z,17.03
2019-04-05T11:08:06.205Z,17.57
2019-04-05T11:10:36.464Z,17.70
2019-04-05T11:13:05.828Z,18.50
2019-04-05T11:15:35.307Z,17.80
2019-04-05T11:18:04.839Z,16.97
2019-04-05T11:20:34.286Z,17.40
2019-04-05T11:23:03.673Z,18.03
2019-04-05T11:25:32.999Z,16.97
2019-04-05T11:28:02.318Z,18.17
2019-04-05T11:30:43.686Z,17.93
2019-04-05T11:33:13.143Z,18.77
2019-04-05T11:35:42.738Z,18.70
2019-04-05T11:38:13.561Z,17.63
2019-04-05T11:40:43.553Z,18.27
2019-04-05T11:43:12.861Z,18.10
2019-04-05T11:45:42.629Z,18.40
2019-04-05T11:48:12.296Z,17.97
2019-04-05T11:50:41.624Z,18.53
2019-04-05T11:53:11.976Z,18.90
2019-04-05T11:55:41.293Z,17.67
2019-04-05T11:58:10.630Z,18.83
2019-04-05T12:00:50.532Z,19.73
2019-04-05T12:03:30.861Z,17.30
2019-04-05T12:06:00.259Z,19.13
2019-04-05T12:08:29.570Z,18.50
2019-04-05T12:10:58.900Z,18.43
2019-04-05T12:13:28.204Z,18.67
2019-04-05T12:15:58.337Z,19.73
2019-04-05T12:18:27.821Z,20.20
2019-04-05T12:21:00.353Z,18.43
2019-04-05T12:23:28.150Z,20.50
2019-04-05T12:25:57.479Z,18.90
2019-04-05T12:28:26.788Z,19.17
2019-04-05T12:30:56.099Z,20.13
2019-04-05T12:33:25.426Z,19.60
2019-04-05T12:35:56.681Z,21.03
2019-04-05T12:38:33.126Z,21.30
2019-04-05T12:41:03.893Z,20.27
2019-04-05T12:43:33.450Z,20.17
2019-04-05T12:46:27.630Z,18.30
2019-04-05T12:49:00.020Z,18.80
2019-04-05T12:51:34.749Z,19.43
2019-04-05T12:54:07.034Z,18.40
2019-04-05T12:56:36.529Z,19.23
2019-04-05T12:59:10.601Z,19.97
2019-04-05T13:01:43.528Z,19.83
2019-04-05T13:04:13.194Z,18.67
2019-04-05T13:06:42.627Z,21.40
2019-04-05T13:09:13.027Z,20.47
2019-04-05T13:11:43.920Z,19.97
2019-04-05T13:14:13.253Z,21.23
2019-04-05T13:16:42.602Z,20.53
2019-04-05T13:19:11.914Z,20.87
2019-04-05T13:21:41.337Z,20.97
2019-04-05T13:24:10.714Z,21.03
2019-04-05T13:26:42.065Z,20.97
2019-04-05T13:29:11.058Z,20.63
2019-04-05T13:31:42.053Z,22.23
2019-04-05T13:34:11.395Z,28.33
2019-04-05T13:36:40.749Z,23.03
2019-04-05T13:39:10.077Z,20.27
2019-04-05T13:41:39.406Z,21.63
2019-04-05T13:44:08.732Z,21.37
2019-04-05T13:46:41.307Z,21.03
2019-04-05T13:49:10.998Z,22.13
2019-04-05T13:51:42.104Z,20.13
2019-04-05T13:54:12.196Z,20.10
2019-04-05T13:56:41.918Z,20.47
2019-04-05T13:59:11.441Z,21.00
2019-04-05T14:01:42.327Z,20.20
2019-04-05T14:04:12.622Z,21.40
2019-04-05T14:06:41.937Z,19.60
2019-04-05T14:09:11.297Z,19.70
2019-04-05T14:11:42.160Z,20.63
2019-04-05T14:14:12.166Z,21.00
2019-04-05T14:16:43.043Z,20.20
2019-04-05T14:19:18.213Z,20.30
2019-04-05T14:21:47.824Z,20.23
2019-04-05T14:24:17.481Z,19.00
2019-04-05T14:26:46.820Z,22.10
2019-04-05T14:29:16.141Z,20.27
2019-04-05T14:31:45.447Z,21.33
2019-04-05T14:34:14.821Z,21.73
2019-04-05T14:36:47.104Z,22.47
2019-04-05T14:39:16.569Z,22.43
2019-04-05T14:41:47.418Z,22.73
2019-04-05T14:44:16.774Z,21.50
2019-04-05T14:46:46.453Z,21.10
2019-04-05T14:49:16.274Z,22.00
2019-04-05T14:51:53.759Z,21.10
2019-04-05T14:54:17.289Z,22.10
2019-04-05T14:56:46.875Z,22.60
2019-04-05T14:59:17.406Z,21.00
2019-04-05T15:01:47.549Z,20.33
2019-04-05T15:04:18.998Z,21.77
2019-04-05T15:06:48.634Z,20.47
2019-04-05T15:09:21.818Z,19.57
2019-04-05T15:11:50.453Z,18.97
2019-04-05T15:14:19.781Z,18.73
2019-04-05T15:16:49.220Z,20.37
2019-04-05T15:19:19.087Z,42.20
2019-04-05T15:21:48.398Z,19.87
2019-04-05T15:24:17.735Z,24.90
2019-04-05T15:26:47.094Z,27.10
2019-04-05T15:29:16.495Z,20.37
2019-04-05T15:31:45.881Z,22.67
2019-04-05T15:34:15.219Z,27.67
2019-04-05T15:36:44.541Z,19.33
2019-04-05T15:39:15.507Z,19.00
2019-04-05T15:41:49.831Z,25.17
2019-04-05T15:44:19.317Z,23.00
2019-04-05T15:50:56.594Z,18.80
2019-04-05T15:53:45.022Z,22.37
2019-04-05T15:56:41.061Z,19.10
2019-04-05T15:59:10.683Z,29.03
2019-04-05T16:01:40.306Z,21.23
2019-04-05T16:04:09.778Z,17.47
2019-04-05T16:06:39.330Z,18.00
2019-04-05T16:09:10.688Z,25.23
2019-04-05T16:11:40.073Z,18.07
2019-04-05T16:14:09.474Z,18.07
2019-04-05T16:16:38.781Z,19.17
2019-04-05T16:19:09.069Z,18.53
2019-04-05T16:21:38.384Z,21.30
2019-04-05T16:24:07.768Z,20.07
2019-04-05T16:26:37.064Z,21.57
2019-04-05T16:29:08.121Z,22.13
2019-04-05T16:31:41.235Z,22.87
2019-04-05T16:34:11.697Z,20.90
2019-04-05T16:36:41.033Z,20.50
2019-04-05T16:39:13.611Z,19.33
2019-04-05T16:41:42.958Z,19.77
2019-04-05T16:44:12.296Z,19.73
2019-04-05T16:46:41.636Z,19.30
2019-04-05T16:49:11.965Z,21.63
2019-04-05T16:51:41.310Z,23.00
2019-04-05T16:54:10.636Z,24.03
2019-04-05T16:56:39.948Z,22.83
2019-04-05T16:59:09.307Z,24.07
2019-04-05T17:01:38.607Z,25.53
2019-04-05T17:04:07.935Z,24.30
2019-04-05T17:06:37.369Z,22.27
2019-04-05T17:09:08.929Z,22.87
2019-04-05T17:11:38.404Z,21.40
2019-04-05T17:14:07.741Z,22.10
2019-04-05T17:16:37.152Z,20.97
2019-04-05T17:19:06.885Z,21.83
2019-04-05T17:21:38.778Z,23.37
2019-04-05T17:24:08.195Z,22.43
2019-04-05T17:26:37.586Z,21.03
2019-04-05T17:29:06.959Z,22.33
2019-04-05T17:31:36.269Z,22.70
2019-04-05T17:34:05.586Z,21.93
2019-04-05T17:36:34.899Z,22.50
2019-04-05T17:39:06.664Z,21.70
2019-04-05T17:41:36.064Z,22.60
2019-04-05T17:44:05.364Z,24.00
2019-04-05T17:46:34.679Z,23.20
2019-04-05T17:49:04.252Z,22.60
2019-04-05T17:51:33.582Z,22.97
2019-04-05T17:54:02.923Z,24.93
2019-04-05T17:56:32.439Z,22.47
2019-04-05T17:59:02.600Z,23.73
2019-04-05T18:01:32.149Z,24.83
2019-04-05T18:04:01.659Z,25.17
2019-04-05T18:06:31.068Z,24.37
2019-04-05T18:09:00.415Z,24.47
2019-04-05T18:11:30.312Z,30.50
2019-04-05T18:13:59.625Z,32.00
2019-04-05T18:17:18.353Z,27.93
2019-04-05T18:30:07.324Z,27.53
2019-04-05T18:32:40.893Z,33.30
2019-04-05T18:35:09.248Z,30.87
2019-04-05T18:37:40.342Z,31.60
2019-04-05T18:42:49.675Z,30.30
2019-04-05T18:45:19.995Z,28.40
2019-04-05T18:47:49.530Z,28.13
2019-04-05T18:50:18.965Z,30.23
2019-04-05T18:52:48.409Z,28.47
2019-04-05T18:55:20.812Z,28.50
2019-04-05T18:57:50.185Z,32.27
2019-04-05T19:00:21.139Z,80.60
2019-04-05T19:02:54.455Z,40.53
2019-04-05T19:05:23.790Z,30.60
2019-04-05T19:07:57.254Z,31.43
2019-04-05T19:10:36.543Z,28.20
2019-04-05T19:12:59.390Z,33.07
2019-04-05T19:15:31.532Z,30.27
2019-04-05T19:18:00.890Z,30.93
2019-04-05T19:20:31.273Z,30.93
2019-04-05T19:23:01.568Z,29.37
2019-04-05T19:25:31.940Z,31.30
2019-04-05T19:28:01.467Z,31.57
2019-04-05T19:50:40.122Z,32.23
2019-04-05T19:53:09.504Z,35.17
2019-04-05T19:55:38.850Z,34.03
2019-04-05T19:58:08.173Z,33.97
2019-04-05T20:00:37.554Z,34.53
2019-04-05T20:03:06.988Z,33.80
2019-04-05T20:05:36.356Z,32.83
2019-04-05T20:08:05.727Z,31.87
2019-04-05T20:10:35.041Z,33.73
2019-04-05T20:13:04.369Z,34.57
2019-04-05T20:15:34.904Z,32.77
2019-04-05T20:18:04.299Z,32.30
2019-04-05T20:20:33.715Z,34.37
2019-04-05T20:23:03.264Z,35.07
2019-04-05T20:25:32.590Z,32.50
2019-04-05T20:28:01.986Z,33.53
2019-04-05T20:30:31.307Z,33.70
2019-04-05T20:33:00.664Z,35.23
2019-04-05T20:35:30.047Z,34.50
2019-04-05T20:37:59.374Z,32.87
2019-04-05T20:40:28.720Z,34.90
2019-04-05T20:42:59.812Z,34.47
2019-04-05T20:45:29.133Z,34.77
2019-04-05T20:48:01.081Z,33.23
2019-04-05T20:50:32.048Z,33.20
2019-04-05T20:53:01.395Z,33.97
2019-04-05T20:55:37.258Z,33.07
2019-04-05T20:58:06.128Z,32.43
2019-04-05T21:00:37.162Z,34.63
2019-04-05T21:03:06.527Z,35.87
2019-04-05T21:05:37.434Z,37.93
2019-04-05T21:08:06.788Z,35.73
2019-04-05T21:10:36.105Z,34.77
2019-04-05T21:13:24.852Z,34.27
2019-04-05T21:15:54.352Z,35.83
2019-04-05T21:18:23.701Z,37.57
2019-04-05T21:20:53.038Z,35.53
2019-04-05T21:23:29.703Z,35.73
2019-04-05T21:25:58.944Z,38.23
2019-04-05T21:28:32.922Z,34.40
2019-04-05T21:31:02.275Z,35.07
2019-04-05T21:33:31.688Z,36.67
2019-04-05T21:36:01.022Z,35.07
2019-04-05T21:38:33.148Z,35.83
2019-04-05T21:41:02.536Z,37.03
2019-04-05T21:43:31.897Z,37.63
2019-04-05T21:46:02.289Z,34.87
2019-04-05T21:48:31.729Z,37.97
2019-04-05T21:51:03.646Z,36.53
2019-04-05T21:53:32.976Z,37.93
2019-04-05T21:56:02.388Z,36.93
2019-04-05T21:58:31.721Z,38.40
2019-04-05T22:01:02.774Z,40.33
2019-04-05T22:03:33.755Z,41.70
2019-04-05T22:06:03.120Z,37.30
2019-04-05T22:08:33.426Z,38.77
2019-04-05T22:11:04.352Z,38.03
2019-04-05T22:13:33.677Z,37.33
2019-04-05T22:16:03.165Z,37.33
2019-04-05T22:18:32.480Z,39.17
2019-04-05T22:21:01.790Z,38.90
2019-04-05T22:23:31.105Z,40.13
2019-04-05T22:26:00.423Z,40.60
2019-04-05T22:28:29.745Z,39.07
2019-04-05T22:30:59.064Z,42.53
2019-04-05T22:33:28.384Z,41.00
2019-04-05T22:35:57.696Z,41.23
2019-04-05T22:38:27.023Z,41.50
2019-04-05T22:40:56.346Z,43.83
2019-04-05T22:43:25.667Z,42.93
2019-04-05T22:45:54.976Z,43.60
2019-04-05T22:48:24.301Z,43.10
2019-04-05T22:50:53.612Z,43.63
2019-04-05T22:53:22.939Z,41.40
2019-04-05T22:55:52.259Z,42.70
2019-04-05T22:58:21.581Z,42.30
2019-04-05T23:00:50.898Z,41.30
2019-04-05T23:03:20.257Z,42.50
2019-04-05T23:05:49.615Z,43.87
2019-04-05T23:08:19.017Z,43.97
2019-04-05T23:10:48.352Z,41.60
2019-04-05T23:13:17.693Z,43.43
2019-04-05T23:15:47.976Z,41.53
2019-04-05T23:18:17.301Z,41.63
2019-04-05T23:20:46.695Z,44.73
2019-04-05T23:23:16.075Z,43.53
2019-04-05T23:25:45.417Z,43.33
2019-04-05T23:28:14.720Z,41.80
2019-04-05T23:30:44.126Z,43.80
2019-04-05T23:33:14.345Z,41.20
2019-04-05T23:35:43.656Z,43.10
2019-04-05T23:38:12.976Z,42.53
2019-04-05T23:40:42.305Z,43.90
2019-04-05T23:43:11.618Z,42.93
2019-04-05T23:45:41.720Z,44.03
2019-04-05T23:48:11.038Z,43.20
2019-04-05T23:50:40.370Z,44.93
2019-04-05T23:53:09.683Z,44.10
2019-04-05T23:55:39.008Z,43.00
2019-04-05T23:58:08.320Z,41.37
